Time;durP1;ratioP1;P1;durP2;ratioP2;P2;SDS_P1;SDS_P2;PMS_P1;PMS_P2;Temp;Humidity;BMP_temperature;BMP_pressure;BME280_temperature;BME280_humidity;BME280_pressure;Samples;Min_cycle;Max_cycle;Signal;HPM_P1;HPM_P2
2021/08/01 00:00:16;;;;;;;23.92;10.35;;;;;;;;;;4974037;28;20034;-68
2021/08/01 00:02:43;;;;;;;21.35;11.23;;;;;;;;;;4988114;28;20027;-69
2021/08/01 00:05:09;;;;;;;22.48;10.95;;;;;;;;;;4990312;28;20019;-68
2021/08/01 00:07:35;;;;;;;23.27;10.88;;;;;;;;;;4976566;28;20131;-69
2021/08/01 00:10:02;;;;;;;20.45;11.65;;;;;;;;;;4971353;28;20030;-68
2021/08/01 00:12:29;;;;;;;22.98;11.63;;;;;;;;;;4975507;28;20019;-68
2021/08/01 00:14:55;;;;;;;26.58;11.18;;;;;;;;;;4974764;28;20440;-68
2021/08/01 00:17:21;;;;;;;21.20;11.18;;;;;;;;;;4970857;28;20031;-69
2021/08/01 00:19:47;;;;;;;23.17;10.45;;;;;;;;;;4986105;28;20041;-70
2021/08/01 00:22:13;;;;;;;23.50;11.50;;;;;;;;;;5011803;28;20031;-70
2021/08/01 00:24:39;;;;;;;21.13;11.27;;;;;;;;;;5001244;28;20018;-69
2021/08/01 00:27:05;;;;;;;25.13;10.90;;;;;;;;;;4983514;28;20037;-68
2021/08/01 00:29:31;;;;;;;25.80;11.57;;;;;;;;;;4979247;28;20031;-68
2021/08/01 00:31:59;;;;;;;24.02;10.80;;;;;;;;;;4988988;28;20019;-69
2021/08/01 00:34:24;;;;;;;29.60;11.63;;;;;;;;;;4978527;28;20025;-69
2021/08/01 00:36:50;;;;;;;23.15;10.95;;;;;;;;;;4978746;28;20026;-68
2021/08/01 00:39:16;;;;;;;23.13;11.75;;;;;;;;;;4986217;28;20015;-69
2021/08/01 00:41:42;;;;;;;17.83;10.38;;;;;;;;;;4976282;28;20472;-69
2021/08/01 00:44:08;;;;;;;26.85;11.77;;;;;;;;;;4994460;28;20037;-69
2021/08/01 00:46:34;;;;;;;22.77;10.77;;;;;;;;;;4976001;28;20539;-68
2021/08/01 00:49:03;;;;;;;25.13;10.98;;;;;;;;;;4992477;28;20031;-69
2021/08/01 00:51:29;;;;;;;24.33;11.10;;;;;;;;;;4979223;28;20034;-68
2021/08/01 00:53:59;;;;;;;19.48;10.70;;;;;;;;;;4976303;28;20270;-68
2021/08/01 00:56:25;;;;;;;21.08;9.88;;;;;;;;;;4988571;28;20049;-68
2021/08/01 00:58:51;;;;;;;18.92;8.80;;;;;;;;;;4989324;28;20472;-68
2021/08/01 01:01:19;;;;;;;22.23;9.18;;;;;;;;;;4989967;28;20034;-68
2021/08/01 01:03:45;;;;;;;25.05;9.98;;;;;;;;;;5002571;28;20022;-68
2021/08/01 01:06:22;;;;;;;21.65;9.65;;;;;;;;;;4987661;28;20506;-68
2021/08/01 01:08:55;;;;;;;20.58;10.55;;;;;;;;;;4990416;28;20041;-68
2021/08/01 01:11:24;;;;;;;20.55;8.75;;;;;;;;;;4985907;28;20030;-68
2021/08/01 01:13:52;;;;;;;28.88;9.50;;;;;;;;;;4990372;28;20024;-68
2021/08/01 01:16:18;;;;;;;26.05;10.68;;;;;;;;;;4989713;28;20479;-68
2021/08/01 01:18:48;;;;;;;28.17;9.88;;;;;;;;;;4989729;28;20022;-68
2021/08/01 01:21:33;;;;;;;16.67;8.82;;;;;;;;;;4988340;28;20041;-68
2021/08/01 01:24:04;;;;;;;20.25;9.30;;;;;;;;;;4989755;28;20026;-69
2021/08/01 01:26:40;;;;;;;21.30;8.48;;;;;;;;;;4988832;28;20108;-69
2021/08/01 01:29:06;;;;;;;16.45;8.32;;;;;;;;;;4989174;28;20438;-68
2021/08/01 01:31:47;;;;;;;17.30;8.27;;;;;;;;;;4997125;28;20032;-68
2021/08/01 01:34:32;;;;;;;17.48;8.77;;;;;;;;;;4989624;28;20023;-68
2021/08/01 01:37:00;;;;;;;15.57;8.23;;;;;;;;;;4989666;28;20022;-69
2021/08/01 01:39:27;;;;;;;17.42;7.60;;;;;;;;;;4988096;28;20031;-69
2021/08/01 01:41:54;;;;;;;15.93;7.13;;;;;;;;;;4988689;28;20069;-68
2021/08/01 01:44:20;;;;;;;17.23;7.38;;;;;;;;;;4989540;28;20399;-68
2021/08/01 01:46:46;;;;;;;17.13;7.35;;;;;;;;;;4989044;28;20057;-68
2021/08/01 01:49:13;;;;;;;20.52;7.80;;;;;;;;;;4989642;28;20025;-68
2021/08/01 01:51:39;;;;;;;18.50;7.15;;;;;;;;;;4991447;28;20530;-69
2021/08/01 01:54:08;;;;;;;16.15;6.82;;;;;;;;;;4990394;28;20038;-68
2021/08/01 01:56:35;;;;;;;16.30;7.15;;;;;;;;;;4988819;28;20037;-68
2021/08/01 01:59:01;;;;;;;23.27;7.80;;;;;;;;;;4989026;28;20030;-69
2021/08/01 02:01:27;;;;;;;16.38;7.45;;;;;;;;;;4997978;28;20026;-69
2021/08/01 02:03:53;;;;;;;23.85;8.25;;;;;;;;;;4992689;28;20035;-68
2021/08/01 02:06:20;;;;;;;22.95;7.78;;;;;;;;;;4989512;28;20030;-68
2021/08/01 02:08:58;;;;;;;18.17;8.75;;;;;;;;;;4989172;28;20050;-68
2021/08/01 02:11:26;;;;;;;16.77;8.55;;;;;;;;;;4986187;28;20110;-68
2021/08/01 02:14:01;;;;;;;24.48;9.43;;;;;;;;;;4988616;28;20458;-68
2021/08/01 02:16:35;;;;;;;20.00;9.57;;;;;;;;;;4983798;28;20042;-68
2021/08/01 02:19:04;;;;;;;23.48;8.70;;;;;;;;;;4988980;28;20030;-68
2021/08/01 02:21:32;;;;;;;25.13;9.80;;;;;;;;;;4980735;28;20142;-68
2021/08/01 02:23:59;;;;;;;19.70;10.02;;;;;;;;;;4988765;28;20084;-68
2021/08/01 02:26:26;;;;;;;30.60;10.13;;;;;;;;;;4988399;28;20034;-68
2021/08/01 02:28:52;;;;;;;25.40;9.98;;;;;;;;;;4989227;28;20034;-70
2021/08/01 02:31:19;;;;;;;28.83;11.43;;;;;;;;;;4984448;28;20026;-69
2021/08/01 02:33:46;;;;;;;26.55;11.10;;;;;;;;;;4987255;28;20046;-69
2021/08/01 02:36:12;;;;;;;32.42;10.60;;;;;;;;;;4985078;28;20030;-70
2021/08/01 02:38:39;;;;;;;28.00;10.23;;;;;;;;;;4990811;28;20101;-69
2021/08/01 02:41:05;;;;;;;29.35;11.25;;;;;;;;;;4987919;28;20030;-69
2021/08/01 02:43:32;;;;;;;27.60;11.63;;;;;;;;;;4988558;28;20031;-69
2021/08/01 02:45:58;;;;;;;34.80;11.80;;;;;;;;;;4995364;28;20451;-70
2021/08/01 02:48:26;;;;;;;25.38;11.48;;;;;;;;;;4989182;28;20042;-69
2021/08/01 02:51:00;;;;;;;31.13;11.35;;;;;;;;;;4982602;28;20072;-69
2021/08/01 02:53:26;;;;;;;26.30;11.18;;;;;;;;;;4988150;28;20116;-69
2021/08/01 02:55:53;;;;;;;30.95;13.68;;;;;;;;;;5003415;28;20030;-70
2021/08/01 02:58:20;;;;;;;37.58;13.82;;;;;;;;;;5008185;28;20014;-72
2021/08/01 03:00:47;;;;;;;27.92;13.25;;;;;;;;;;5011449;28;20069;-71
2021/08/01 03:03:16;;;;;;;32.95;13.48;;;;;;;;;;4995722;28;20098;-70
2021/08/01 03:05:43;;;;;;;25.63;12.40;;;;;;;;;;4988005;28;20154;-69
2021/08/01 03:08:13;;;;;;;34.08;11.85;;;;;;;;;;4988862;28;20027;-72
2021/08/01 03:10:42;;;;;;;33.83;13.25;;;;;;;;;;4988681;28;20034;-72
2021/08/01 03:13:08;;;;;;;25.48;11.73;;;;;;;;;;4981948;28;20130;-69
2021/08/01 03:15:34;;;;;;;27.52;13.18;;;;;;;;;;4997992;28;20112;-71
2021/08/01 03:18:00;;;;;;;30.45;11.70;;;;;;;;;;4988691;28;20046;-69
2021/08/01 03:20:26;;;;;;;30.40;12.18;;;;;;;;;;4986651;28;20106;-68
2021/08/01 03:22:52;;;;;;;25.33;10.90;;;;;;;;;;4987743;28;20480;-69
2021/08/01 03:25:18;;;;;;;30.65;12.98;;;;;;;;;;4993331;28;20117;-69
2021/08/01 03:27:44;;;;;;;27.88;11.90;;;;;;;;;;4987618;28;20058;-69
2021/08/01 03:30:10;;;;;;;29.27;11.85;;;;;;;;;;4987948;28;20462;-70
2021/08/01 03:32:36;;;;;;;27.42;11.05;;;;;;;;;;4998102;28;20387;-69
2021/08/01 03:35:02;;;;;;;36.95;12.88;;;;;;;;;;4988261;28;20042;-72
2021/08/01 03:37:28;;;;;;;35.55;11.50;;;;;;;;;;4995926;28;20113;-69
2021/08/01 03:39:55;;;;;;;42.97;13.48;;;;;;;;;;4989796;28;20576;-69
2021/08/01 03:42:21;;;;;;;29.42;12.10;;;;;;;;;;4996166;28;20479;-70
2021/08/01 03:44:47;;;;;;;24.45;11.98;;;;;;;;;;4991426;28;20518;-69
2021/08/01 03:47:14;;;;;;;25.60;12.52;;;;;;;;;;5019675;28;20031;-69
2021/08/01 03:49:42;;;;;;;30.08;12.35;;;;;;;;;;4993038;28;20038;-70
2021/08/01 03:52:08;;;;;;;28.45;12.02;;;;;;;;;;4990222;28;20104;-70
2021/08/01 03:54:34;;;;;;;23.90;12.23;;;;;;;;;;4991455;28;20113;-69
2021/08/01 03:57:00;;;;;;;26.52;12.07;;;;;;;;;;4991011;28;20139;-69
2021/08/01 03:59:26;;;;;;;28.67;12.95;;;;;;;;;;4991112;28;20030;-70
2021/08/01 04:01:52;;;;;;;31.75;13.57;;;;;;;;;;4990364;28;20034;-69
2021/08/01 04:04:18;;;;;;;31.67;13.52;;;;;;;;;;4997071;28;20057;-70
2021/08/01 04:06:44;;;;;;;34.38;13.50;;;;;;;;;;4997527;28;20502;-69
2021/08/01 04:09:10;;;;;;;33.38;13.85;;;;;;;;;;4991288;28;20061;-69
2021/08/01 04:11:37;;;;;;;31.33;14.48;;;;;;;;;;4991150;28;20034;-69
2021/08/01 04:14:03;;;;;;;33.20;14.55;;;;;;;;;;4990300;28;20025;-69
2021/08/01 04:16:29;;;;;;;37.22;13.73;;;;;;;;;;4991560;28;20034;-70
2021/08/01 04:18:55;;;;;;;33.65;14.45;;;;;;;;;;4991201;28;20023;-70
2021/08/01 04:21:21;;;;;;;33.20;13.52;;;;;;;;;;4996025;28;20029;-69
2021/08/01 04:23:47;;;;;;;32.45;14.40;;;;;;;;;;5002542;28;20109;-69
2021/08/01 04:26:13;;;;;;;42.05;15.50;;;;;;;;;;4990740;28;20137;-70
2021/08/01 04:28:39;;;;;;;31.40;13.88;;;;;;;;;;4989704;28;20081;-70
2021/08/01 04:31:05;;;;;;;32.92;14.75;;;;;;;;;;4984778;28;20042;-69
2021/08/01 04:33:31;;;;;;;28.92;14.32;;;;;;;;;;4990495;28;20042;-70
2021/08/01 04:35:57;;;;;;;33.17;13.90;;;;;;;;;;4990772;28;20106;-69
2021/08/01 04:38:23;;;;;;;34.45;14.55;;;;;;;;;;4990494;28;20073;-69
2021/08/01 04:40:49;;;;;;;37.00;14.55;;;;;;;;;;4990535;28;20026;-69
2021/08/01 04:43:15;;;;;;;37.50;15.80;;;;;;;;;;4990275;28;20041;-70
2021/08/01 04:45:41;;;;;;;33.28;13.98;;;;;;;;;;4989764;28;20384;-68
2021/08/01 04:48:07;;;;;;;28.90;14.40;;;;;;;;;;4990592;28;20034;-69
2021/08/01 04:50:33;;;;;;;34.35;14.82;;;;;;;;;;4986139;28;20034;-69
2021/08/01 04:52:59;;;;;;;31.52;14.23;;;;;;;;;;4997325;28;20031;-69
2021/08/01 04:55:25;;;;;;;37.65;14.52;;;;;;;;;;4989965;28;20019;-69
2021/08/01 04:57:51;;;;;;;33.72;15.10;;;;;;;;;;4989161;28;20022;-70
2021/08/01 05:00:17;;;;;;;34.15;15.57;;;;;;;;;;4987270;28;20081;-69
2021/08/01 05:02:43;;;;;;;30.30;13.80;;;;;;;;;;4988789;28;20102;-69
2021/08/01 05:05:09;;;;;;;39.55;16.30;;;;;;;;;;4990007;28;20125;-70
2021/08/01 05:07:35;;;;;;;34.40;14.95;;;;;;;;;;4990716;28;20109;-70
2021/08/01 05:10:01;;;;;;;35.53;16.10;;;;;;;;;;4990077;28;20494;-70
2021/08/01 05:12:27;;;;;;;32.97;15.32;;;;;;;;;;4989403;28;20570;-71
2021/08/01 05:14:53;;;;;;;34.45;15.57;;;;;;;;;;4989899;28;20030;-70
2021/08/01 05:17:19;;;;;;;39.05;15.82;;;;;;;;;;4987676;28;20033;-70
2021/08/01 05:19:45;;;;;;;36.35;15.00;;;;;;;;;;4987439;28;20041;-70
2021/08/01 05:22:11;;;;;;;30.48;15.35;;;;;;;;;;4985002;28;20034;-69
2021/08/01 05:24:41;;;;;;;33.92;15.07;;;;;;;;;;4999485;28;20494;-70
2021/08/01 05:27:07;;;;;;;33.08;15.63;;;;;;;;;;4991855;28;20086;-69
2021/08/01 05:29:34;;;;;;;35.42;15.90;;;;;;;;;;4996764;28;20053;-70
2021/08/01 05:32:00;;;;;;;29.90;15.57;;;;;;;;;;4999508;28;20042;-70
2021/08/01 05:34:26;;;;;;;31.98;15.00;;;;;;;;;;4999400;28;20186;-69
2021/08/01 05:36:52;;;;;;;32.78;15.70;;;;;;;;;;4998905;28;20029;-71
2021/08/01 05:39:18;;;;;;;34.35;15.35;;;;;;;;;;5003709;28;20052;-69
2021/08/01 05:41:44;;;;;;;30.35;15.50;;;;;;;;;;4993852;28;20089;-69
2021/08/01 05:44:10;;;;;;;31.52;15.07;;;;;;;;;;4989742;28;20030;-70
2021/08/01 05:46:36;;;;;;;29.63;14.85;;;;;;;;;;4990544;28;20153;-70
2021/08/01 05:49:02;;;;;;;30.92;16.13;;;;;;;;;;4990219;28;20545;-69
2021/08/01 05:51:28;;;;;;;28.35;14.30;;;;;;;;;;4988517;28;20565;-70
2021/08/01 05:53:54;;;;;;;30.60;15.15;;;;;;;;;;4989512;28;20054;-70
2021/08/01 05:56:20;;;;;;;32.47;14.32;;;;;;;;;;4989630;28;20033;-69
2021/08/01 05:58:46;;;;;;;31.13;14.95;;;;;;;;;;4989589;28;20026;-72
2021/08/01 06:01:13;;;;;;;27.95;14.90;;;;;;;;;;4989277;28;20026;-69
2021/08/01 06:03:39;;;;;;;30.13;16.88;;;;;;;;;;4989414;28;20037;-70
2021/08/01 06:06:09;;;;;;;33.10;16.58;;;;;;;;;;4989456;28;20034;-69
2021/08/01 06:08:35;;;;;;;25.42;15.40;;;;;;;;;;4984875;28;20029;-70
2021/08/01 06:11:02;;;;;;;25.80;15.60;;;;;;;;;;4982959;28;20030;-70
2021/08/01 06:13:28;;;;;;;30.63;15.55;;;;;;;;;;4988588;28;20129;-70
2021/08/01 06:15:54;;;;;;;29.38;15.20;;;;;;;;;;4974696;28;20443;-69
2021/08/01 06:18:20;;;;;;;29.20;15.85;;;;;;;;;;4974133;28;20107;-69
2021/08/01 06:20:46;;;;;;;28.73;14.40;;;;;;;;;;4974188;28;20045;-70
2021/08/01 06:23:12;;;;;;;33.03;15.13;;;;;;;;;;4986542;28;20026;-70
2021/08/01 06:25:38;;;;;;;31.00;16.45;;;;;;;;;;4975868;28;20023;-70
2021/08/01 06:28:04;;;;;;;31.92;16.40;;;;;;;;;;4970118;28;20031;-70
2021/08/01 06:30:30;;;;;;;26.52;14.63;;;;;;;;;;4968350;28;20468;-71
2021/08/01 06:32:56;;;;;;;30.35;14.90;;;;;;;;;;4981125;28;20054;-70
2021/08/01 06:35:22;;;;;;;28.50;15.30;;;;;;;;;;4980109;28;20480;-70
2021/08/01 06:37:48;;;;;;;28.92;14.45;;;;;;;;;;4974841;28;20630;-69
2021/08/01 06:40:16;;;;;;;24.02;14.68;;;;;;;;;;4975059;28;20121;-69
2021/08/01 06:42:42;;;;;;;23.73;15.68;;;;;;;;;;4970355;28;20040;-70
2021/08/01 06:45:08;;;;;;;30.17;17.75;;;;;;;;;;4972207;28;20027;-69
2021/08/01 06:47:34;;;;;;;29.42;17.77;;;;;;;;;;4970682;28;20396;-70
2021/08/01 06:50:00;;;;;;;30.98;19.05;;;;;;;;;;4972751;28;20039;-69
2021/08/01 06:52:26;;;;;;;35.55;21.98;;;;;;;;;;4975414;28;20055;-70
2021/08/01 06:54:52;;;;;;;37.22;22.27;;;;;;;;;;4970771;28;20099;-70
2021/08/01 06:57:18;;;;;;;32.97;21.70;;;;;;;;;;4987224;28;20105;-70
2021/08/01 06:59:44;;;;;;;37.90;24.33;;;;;;;;;;4973785;28;20030;-70
2021/08/01 07:02:10;;;;;;;38.65;25.50;;;;;;;;;;4973336;28;20136;-70
2021/08/01 07:04:36;;;;;;;38.25;24.17;;;;;;;;;;4972998;28;20616;-69
2021/08/01 07:07:02;;;;;;;37.35;23.65;;;;;;;;;;4973463;28;20037;-70
2021/08/01 07:09:28;;;;;;;36.47;22.83;;;;;;;;;;4970135;28;20395;-70
2021/08/01 07:11:54;;;;;;;35.83;23.88;;;;;;;;;;4969225;28;20029;-69
2021/08/01 07:14:20;;;;;;;37.22;24.00;;;;;;;;;;4970872;28;20045;-69
2021/08/01 07:16:46;;;;;;;37.22;22.52;;;;;;;;;;4968874;28;20455;-69
2021/08/01 07:19:12;;;;;;;35.20;19.17;;;;;;;;;;4974331;28;20042;-69
2021/08/01 07:21:38;;;;;;;22.95;14.27;;;;;;;;;;4971732;28;20030;-69
2021/08/01 07:24:04;;;;;;;20.42;12.32;;;;;;;;;;4985333;28;20038;-70
2021/08/01 07:26:30;;;;;;;15.48;10.88;;;;;;;;;;4972120;28;20037;-69
2021/08/01 07:28:56;;;;;;;11.52;7.88;;;;;;;;;;4987772;28;20023;-69
2021/08/01 07:31:22;;;;;;;12.00;6.85;;;;;;;;;;4989757;28;20037;-70
2021/08/01 07:33:48;;;;;;;6.90;6.10;;;;;;;;;;4977852;28;20027;-70
2021/08/01 07:36:14;;;;;;;6.45;4.93;;;;;;;;;;4977159;28;20034;-69
2021/08/01 07:38:40;;;;;;;10.10;6.38;;;;;;;;;;4982227;28;20023;-70
2021/08/01 07:41:06;;;;;;;11.95;6.60;;;;;;;;;;4978775;28;20089;-69
2021/08/01 07:43:31;;;;;;;8.80;5.95;;;;;;;;;;4977344;28;20400;-70
2021/08/01 07:45:57;;;;;;;9.40;5.95;;;;;;;;;;4977954;28;20027;-70
2021/08/01 07:48:23;;;;;;;9.50;5.65;;;;;;;;;;4978216;28;20086;-69
2021/08/01 07:50:49;;;;;;;8.02;5.95;;;;;;;;;;4974142;28;20034;-69
2021/08/01 07:53:15;;;;;;;8.02;4.75;;;;;;;;;;4974361;28;20082;-69
2021/08/01 07:55:43;;;;;;;7.78;5.30;;;;;;;;;;4974369;28;20031;-69
2021/08/01 07:58:09;;;;;;;9.20;6.03;;;;;;;;;;4977203;28;20396;-70
2021/08/01 08:00:35;;;;;;;9.57;6.10;;;;;;;;;;4976694;28;20023;-69
2021/08/01 08:03:01;;;;;;;8.45;5.78;;;;;;;;;;4975221;28;20039;-70
2021/08/01 08:05:27;;;;;;;8.98;6.15;;;;;;;;;;4974088;28;20120;-69
2021/08/01 08:07:54;;;;;;;9.50;6.93;;;;;;;;;;4982246;28;20023;-71
2021/08/01 08:10:20;;;;;;;8.48;6.72;;;;;;;;;;4987966;28;20019;-69
2021/08/01 08:12:46;;;;;;;10.02;6.53;;;;;;;;;;4987638;28;20090;-71
2021/08/01 08:15:12;;;;;;;9.20;5.80;;;;;;;;;;5001087;28;20065;-69
2021/08/01 08:17:38;;;;;;;5.90;4.63;;;;;;;;;;4971840;28;20011;-69
2021/08/01 08:20:05;;;;;;;5.63;4.80;;;;;;;;;;4976491;28;20395;-69
2021/08/01 08:22:31;;;;;;;6.75;4.38;;;;;;;;;;4987668;28;20062;-70
2021/08/01 08:24:57;;;;;;;7.95;4.72;;;;;;;;;;4974270;28;20065;-70
2021/08/01 08:27:23;;;;;;;5.97;4.55;;;;;;;;;;4974958;28;20488;-70
2021/08/01 08:29:49;;;;;;;7.30;4.57;;;;;;;;;;4971398;28;20058;-70
2021/08/01 08:32:15;;;;;;;7.45;4.30;;;;;;;;;;4986615;28;20049;-69
2021/08/01 08:34:41;;;;;;;7.70;3.35;;;;;;;;;;4973912;28;20798;-70
2021/08/01 08:37:07;;;;;;;3.85;2.58;;;;;;;;;;4972989;28;20022;-69
2021/08/01 08:39:33;;;;;;;5.05;2.47;;;;;;;;;;4984384;28;20031;-68
2021/08/01 08:42:02;;;;;;;7.10;3.85;;;;;;;;;;4984240;28;20038;-68
2021/08/01 08:44:28;;;;;;;8.90;4.63;;;;;;;;;;4984364;28;20027;-69
2021/08/01 08:46:55;;;;;;;9.02;4.40;;;;;;;;;;4980450;28;20072;-69
2021/08/01 08:49:22;;;;;;;7.25;4.35;;;;;;;;;;4973763;28;20037;-69
2021/08/01 08:51:50;;;;;;;8.90;4.43;;;;;;;;;;4972161;28;20113;-69
2021/08/01 08:54:17;;;;;;;18.70;6.00;;;;;;;;;;4974672;28;20532;-71
2021/08/01 08:56:45;;;;;;;38.25;8.52;;;;;;;;;;4989785;28;20018;-70
2021/08/01 08:59:12;;;;;;;13.32;5.15;;;;;;;;;;4972756;28;20030;-69
2021/08/01 09:01:38;;;;;;;6.65;3.72;;;;;;;;;;4973196;28;20515;-69
2021/08/01 09:04:04;;;;;;;10.55;4.85;;;;;;;;;;4973289;28;20489;-69
2021/08/01 09:06:30;;;;;;;8.45;5.13;;;;;;;;;;4986874;28;20026;-69
2021/08/01 09:08:56;;;;;;;11.70;7.15;;;;;;;;;;4971296;28;20042;-69
2021/08/01 09:11:22;;;;;;;10.93;6.85;;;;;;;;;;4986473;28;20045;-70
2021/08/01 09:13:52;;;;;;;8.27;5.55;;;;;;;;;;4974502;28;20139;-70
2021/08/01 09:16:19;;;;;;;10.45;7.20;;;;;;;;;;4978077;28;20022;-70
2021/08/01 09:18:46;;;;;;;12.50;8.82;;;;;;;;;;4979565;28;20029;-71
2021/08/01 09:21:38;;;;;;;10.50;6.93;;;;;;;;;;4971076;28;20034;-71
2021/08/01 09:24:04;;;;;;;12.93;7.50;;;;;;;;;;4975933;28;20555;-71
2021/08/01 09:26:46;;;;;;;9.98;7.32;;;;;;;;;;4978554;28;20392;-72
2021/08/01 09:29:12;;;;;;;12.00;7.10;;;;;;;;;;4988881;28;20108;-72
2021/08/01 09:31:38;;;;;;;13.85;6.88;;;;;;;;;;4984599;28;20031;-71
2021/08/01 09:34:22;;;;;;;10.45;6.35;;;;;;;;;;4977309;28;20439;-72
2021/08/01 09:37:04;;;;;;;11.63;7.03;;;;;;;;;;4979491;28;20030;-72
2021/08/01 09:39:39;;;;;;;12.70;8.70;;;;;;;;;;4976026;28;20031;-71
2021/08/01 09:42:05;;;;;;;11.32;7.57;;;;;;;;;;4975680;28;20051;-71
2021/08/01 09:44:31;;;;;;;11.27;7.38;;;;;;;;;;4982143;28;20066;-71
2021/08/01 09:46:58;;;;;;;11.55;7.55;;;;;;;;;;4975949;28;20404;-71
2021/08/01 09:49:25;;;;;;;11.55;7.10;;;;;;;;;;4973250;28;20031;-71
2021/08/01 09:51:56;;;;;;;13.40;7.82;;;;;;;;;;4979288;28;20034;-72
2021/08/01 09:54:25;;;;;;;10.00;7.00;;;;;;;;;;4974164;28;20056;-71
2021/08/01 09:56:58;;;;;;;17.63;6.97;;;;;;;;;;4988705;28;20541;-71
2021/08/01 09:59:25;;;;;;;10.82;7.78;;;;;;;;;;5006764;28;20109;-71
2021/08/01 10:01:53;;;;;;;15.23;7.47;;;;;;;;;;4978732;28;20113;-72
2021/08/01 10:04:23;;;;;;;12.02;8.50;;;;;;;;;;4974900;28;20487;-72
2021/08/01 10:07:18;;;;;;;14.93;7.45;;;;;;;;;;4971873;28;20022;-72
2021/08/01 10:09:45;;;;;;;13.55;8.35;;;;;;;;;;4976063;28;20453;-70
2021/08/01 10:12:12;;;;;;;10.77;7.75;;;;;;;;;;4969647;28;20041;-71
2021/08/01 10:14:39;;;;;;;10.73;8.10;;;;;;;;;;4977700;28;20484;-72
2021/08/01 10:17:05;;;;;;;11.38;6.97;;;;;;;;;;4972350;28;20026;-70
2021/08/01 10:19:31;;;;;;;10.75;7.22;;;;;;;;;;4977412;28;20507;-71
2021/08/01 10:21:59;;;;;;;9.13;5.40;;;;;;;;;;4976538;28;20110;-70
2021/08/01 10:24:26;;;;;;;5.40;4.35;;;;;;;;;;4979782;28;20114;-70
2021/08/01 10:26:53;;;;;;;5.32;4.28;;;;;;;;;;4976233;28;20026;-70
2021/08/01 10:29:23;;;;;;;5.32;4.03;;;;;;;;;;4972913;28;20031;-70
2021/08/01 10:32:19;;;;;;;5.30;3.38;;;;;;;;;;4974842;28;20052;-70
2021/08/01 10:34:46;;;;;;;5.90;3.33;;;;;;;;;;4984337;28;20080;-70
2021/08/01 10:37:15;;;;;;;7.30;4.03;;;;;;;;;;4976451;28;20053;-70
2021/08/01 10:39:44;;;;;;;6.73;4.07;;;;;;;;;;4972878;28;20030;-71
2021/08/01 10:42:11;;;;;;;6.93;4.13;;;;;;;;;;4975841;28;20268;-70
2021/08/01 10:44:37;;;;;;;5.60;3.40;;;;;;;;;;4979463;28;20427;-73
2021/08/01 10:47:09;;;;;;;6.93;3.95;;;;;;;;;;4994244;28;20027;-70
2021/08/01 10:49:38;;;;;;;8.00;3.33;;;;;;;;;;4979707;28;20022;-70
2021/08/01 10:52:11;;;;;;;7.27;3.47;;;;;;;;;;4980206;28;20058;-69
2021/08/01 10:54:52;;;;;;;3.58;3.10;;;;;;;;;;4974393;28;20400;-70
2021/08/01 10:57:19;;;;;;;6.93;3.70;;;;;;;;;;4973999;28;20105;-70
2021/08/01 10:59:45;;;;;;;6.88;4.22;;;;;;;;;;4976798;28;20162;-70
2021/08/01 11:02:17;;;;;;;4.80;3.95;;;;;;;;;;4977052;28;20048;-72
2021/08/01 11:04:45;;;;;;;9.55;4.68;;;;;;;;;;4974446;28;20402;-71
2021/08/01 11:07:11;;;;;;;5.82;4.18;;;;;;;;;;4974293;28;20019;-70
2021/08/01 11:09:37;;;;;;;7.75;3.05;;;;;;;;;;4973165;28;20053;-71
2021/08/01 11:12:18;;;;;;;5.43;3.15;;;;;;;;;;4986223;28;20110;-71
2021/08/01 11:14:52;;;;;;;4.72;2.83;;;;;;;;;;4972217;28;20043;-70
2021/08/01 11:17:19;;;;;;;4.50;2.47;;;;;;;;;;4975765;28;20026;-70
2021/08/01 11:19:45;;;;;;;4.05;2.60;;;;;;;;;;4989799;28;20381;-69
2021/08/01 11:22:30;;;;;;;3.63;3.30;;;;;;;;;;4974166;28;20034;-70
2021/08/01 11:25:14;;;;;;;3.10;2.40;;;;;;;;;;4974503;28;20546;-70
2021/08/01 11:27:40;;;;;;;5.15;2.55;;;;;;;;;;4976619;28;20384;-70
2021/08/01 11:30:06;;;;;;;5.10;2.25;;;;;;;;;;4976804;28;20045;-71
2021/08/01 11:32:50;;;;;;;6.28;2.95;;;;;;;;;;4979229;28;20033;-70
2021/08/01 11:35:19;;;;;;;5.40;2.67;;;;;;;;;;4972083;28;20049;-71
2021/08/01 11:37:45;;;;;;;;;;;;;;;;;;4977127;28;20027;-72
2021/08/01 11:40:12;;;;;;;5.35;2.53;;;;;;;;;;4974709;28;19910;-71
2021/08/01 11:42:39;;;;;;;4.75;2.03;;;;;;;;;;4988957;28;20027;-71
2021/08/01 11:45:13;;;;;;;6.20;2.30;;;;;;;;;;4975626;28;20164;-71
2021/08/01 11:47:43;;;;;;;4.75;2.50;;;;;;;;;;4972411;28;20023;-71
2021/08/01 11:50:09;;;;;;;3.10;2.70;;;;;;;;;;4987189;28;20184;-72
2021/08/01 11:52:48;;;;;;;4.88;2.30;;;;;;;;;;4973049;28;20034;-72
2021/08/01 11:55:14;;;;;;;5.25;2.88;;;;;;;;;;4985597;28;20081;-72
2021/08/01 11:57:40;;;;;;;5.15;2.80;;;;;;;;;;4990094;28;20109;-72
2021/08/01 12:00:06;;;;;;;7.57;2.97;;;;;;;;;;4991776;28;20021;-71
2021/08/01 12:02:32;;;;;;;9.23;3.08;;;;;;;;;;4985914;28;20415;-72
2021/08/01 12:04:59;;;;;;;6.55;3.45;;;;;;;;;;4984580;28;20026;-71
2021/08/01 12:07:39;;;;;;;3.95;2.58;;;;;;;;;;4987277;28;20069;-71
2021/08/01 12:10:17;;;;;;;3.67;2.42;;;;;;;;;;4985827;28;20038;-71
2021/08/01 12:12:43;;;;;;;4.45;2.00;;;;;;;;;;4992751;28;20052;-71
2021/08/01 12:15:10;;;;;;;3.25;2.13;;;;;;;;;;5000687;28;20559;-71
2021/08/01 12:17:36;;;;;;;2.92;1.83;;;;;;;;;;4988721;28;20030;-71
2021/08/01 12:20:03;;;;;;;7.05;2.40;;;;;;;;;;4983576;28;20069;-71
2021/08/01 12:22:29;;;;;;;4.60;1.95;;;;;;;;;;4989526;28;20496;-71
2021/08/01 12:24:56;;;;;;;4.80;2.00;;;;;;;;;;4973785;28;20109;-71
2021/08/01 12:27:25;;;;;;;4.10;2.53;;;;;;;;;;4975859;28;20023;-71
2021/08/01 12:29:53;;;;;;;2.60;1.63;;;;;;;;;;4974395;28;20097;-71
2021/08/01 12:32:19;;;;;;;5.30;1.80;;;;;;;;;;4974654;28;20023;-72
2021/08/01 12:34:45;;;;;;;4.97;1.50;;;;;;;;;;4975072;28;20732;-72
2021/08/01 12:37:11;;;;;;;2.80;1.30;;;;;;;;;;4978633;28;20540;-74
2021/08/01 12:39:48;;;;;;;4.25;1.55;;;;;;;;;;4974084;28;20027;-72
2021/08/01 12:42:14;;;;;;;2.72;0.98;;;;;;;;;;4973832;28;20078;-73
2021/08/01 12:44:51;;;;;;;2.17;1.25;;;;;;;;;;4990369;28;20065;-71
2021/08/01 12:47:20;;;;;;;3.72;1.65;;;;;;;;;;4974445;28;20046;-71
2021/08/01 12:49:47;;;;;;;3.65;1.40;;;;;;;;;;4989580;28;20038;-71
2021/08/01 12:52:17;;;;;;;1.80;1.40;;;;;;;;;;5006459;28;20055;-72
2021/08/01 12:54:44;;;;;;;5.13;1.63;;;;;;;;;;4973371;28;20029;-71
2021/08/01 12:57:10;;;;;;;3.88;2.17;;;;;;;;;;4972575;28;20047;-71
2021/08/01 12:59:37;;;;;;;3.10;1.80;;;;;;;;;;4974840;28;20065;-72
2021/08/01 13:02:04;;;;;;;4.45;2.50;;;;;;;;;;4974692;28;20034;-71
2021/08/01 13:04:45;;;;;;;2.53;2.20;;;;;;;;;;4973830;28;20066;-71
2021/08/01 13:07:12;;;;;;;4.10;1.90;;;;;;;;;;4981059;28;20030;-73
2021/08/01 13:09:38;;;;;;;4.90;2.22;;;;;;;;;;4982545;28;20038;-71
2021/08/01 13:12:11;;;;;;;2.75;2.03;;;;;;;;;;4980183;28;20037;-72
2021/08/01 13:14:40;;;;;;;4.50;1.80;;;;;;;;;;4985464;28;20417;-72
2021/08/01 13:17:06;;;;;;;3.30;1.95;;;;;;;;;;4987342;28;20030;-72
2021/08/01 13:19:39;;;;;;;3.58;1.75;;;;;;;;;;4982249;28;20035;-72
2021/08/01 13:22:07;;;;;;;4.10;1.42;;;;;;;;;;4981664;28;20036;-72
2021/08/01 13:24:57;;;;;;;1.83;1.30;;;;;;;;;;4986129;28;20455;-72
2021/08/01 13:27:23;;;;;;;3.63;1.58;;;;;;;;;;4983927;28;20042;-71
2021/08/01 13:29:50;;;;;;;4.50;1.85;;;;;;;;;;4987989;28;20062;-72
2021/08/01 13:32:18;;;;;;;2.20;1.25;;;;;;;;;;4993204;28;20028;-72
2021/08/01 13:34:45;;;;;;;3.58;1.38;;;;;;;;;;4991083;28;20037;-72
2021/08/01 13:37:27;;;;;;;1.77;1.40;;;;;;;;;;4984846;28;20046;-72
2021/08/01 13:39:58;;;;;;;2.10;1.25;;;;;;;;;;4975609;28;20066;-72
2021/08/01 13:42:35;;;;;;;3.10;0.90;;;;;;;;;;4976480;28;20059;-72
2021/08/01 13:45:03;;;;;;;2.38;1.25;;;;;;;;;;5007278;28;20031;-72
2021/08/01 13:47:33;;;;;;;1.75;1.00;;;;;;;;;;4977868;28;20037;-72
2021/08/01 13:50:01;;;;;;;1.95;0.90;;;;;;;;;;5016657;28;20030;-71
2021/08/01 13:52:29;;;;;;;2.65;1.27;;;;;;;;;;4987627;28;20038;-71
2021/08/01 13:54:56;;;;;;;3.95;1.23;;;;;;;;;;4981910;28;20480;-72
2021/08/01 13:57:23;;;;;;;2.38;0.80;;;;;;;;;;4984661;28;20059;-72
2021/08/01 13:59:49;;;;;;;2.58;1.20;;;;;;;;;;4980763;28;20046;-71
2021/08/01 14:02:15;;;;;;;6.47;1.00;;;;;;;;;;4976909;28;20114;-73
2021/08/01 14:04:41;;;;;;;1.52;0.88;;;;;;;;;;4978920;28;20266;-72
2021/08/01 14:07:07;;;;;;;2.00;1.23;;;;;;;;;;4977546;28;20040;-72
2021/08/01 14:09:34;;;;;;;3.00;1.10;;;;;;;;;;4977343;28;20105;-72
2021/08/01 14:12:00;;;;;;;3.15;1.13;;;;;;;;;;4984067;28;20029;-72
2021/08/01 14:14:26;;;;;;;2.38;1.20;;;;;;;;;;4987394;28;20520;-71
2021/08/01 14:16:52;;;;;;;3.15;0.85;;;;;;;;;;4989232;28;20101;-72
2021/08/01 14:19:18;;;;;;;3.70;0.88;;;;;;;;;;4985606;28;20125;-71
2021/08/01 14:21:45;;;;;;;1.73;0.80;;;;;;;;;;4985789;28;20030;-72
2021/08/01 14:24:11;;;;;;;4.00;1.17;;;;;;;;;;4988405;28;20105;-72
2021/08/01 14:26:38;;;;;;;2.60;0.95;;;;;;;;;;4989591;28;20100;-73
2021/08/01 14:29:05;;;;;;;2.80;0.88;;;;;;;;;;5002849;28;20406;-71
2021/08/01 14:31:31;;;;;;;3.13;0.80;;;;;;;;;;4981863;28;20034;-72
2021/08/01 14:34:00;;;;;;;1.13;0.60;;;;;;;;;;4978648;28;20033;-72